Time;durP1;ratioP1;P1;durP2;ratioP2;P2;SDS_P1;SDS_P2;PMS_P1;PMS_P2;Temp;Humidity;BMP_temperature;BMP_pressure;BME280_temperature;BME280_humidity;BME280_pressure;Samples;Min_cycle;Max_cycle;Signal;HPM_P1;HPM_P2
2023/06/22 00:02:45;;;;;;;3.83;1.60;;;;;;;21.10;89.07;101649.72;6247274;28;20046;-72
2023/06/22 00:05:47;;;;;;;2.95;1.80;;;;;;;21.07;89.13;101650.81;6246145;28;20060;-73
2023/06/22 00:08:48;;;;;;;2.78;1.85;;;;;;;20.98;88.43;101655.13;6246415;28;20103;-73
2023/06/22 00:11:49;;;;;;;2.75;2.17;;;;;;;20.92;89.57;101644.91;6254229;28;20056;-73
2023/06/22 00:14:51;;;;;;;3.75;2.28;;;;;;;20.90;91.25;101648.72;6273646;28;20384;-72
2023/06/22 00:17:53;;;;;;;3.20;2.00;;;;;;;20.85;91.40;101651.78;6268428;28;20052;-73
2023/06/22 00:20:57;;;;;;;2.55;2.08;;;;;;;20.82;92.09;101648.50;6258304;28;20422;-73
2023/06/22 00:23:58;;;;;;;6.82;2.75;;;;;;;20.77;92.26;101652.38;6272764;28;20049;-73
2023/06/22 00:27:00;;;;;;;2.85;1.67;;;;;;;20.74;90.81;101647.28;6249815;28;20053;-72
2023/06/22 00:30:01;;;;;;;3.33;2.00;;;;;;;20.65;89.86;101655.22;6254423;28;20046;-72
2023/06/22 00:33:07;;;;;;;2.80;2.08;;;;;;;20.61;92.22;101649.25;6248506;28;20057;-73
2023/06/22 00:36:08;;;;;;;3.63;1.80;;;;;;;20.58;92.44;101649.53;6255214;28;20060;-73
2023/06/22 00:39:10;;;;;;;7.15;2.10;;;;;;;20.58;92.79;101654.88;6249658;28;20560;-73
2023/06/22 00:42:12;;;;;;;4.10;1.83;;;;;;;20.58;93.06;101651.34;6246607;28;20497;-73
2023/06/22 00:45:13;;;;;;;4.88;2.85;;;;;;;20.56;92.93;101648.78;6256757;28;20397;-73
2023/06/22 00:48:16;;;;;;;7.55;2.17;;;;;;;20.50;93.81;101649.28;6249002;28;20057;-73
2023/06/22 00:51:24;;;;;;;2.35;1.58;;;;;;;20.50;92.76;101647.47;6248022;28;20046;-73
2023/06/22 00:54:25;;;;;;;3.58;1.90;;;;;;;20.50;90.96;101650.13;6270831;28;20123;-73
2023/06/22 00:57:28;;;;;;;3.10;1.95;;;;;;;20.48;92.68;101645.88;6278093;28;20037;-73
2023/06/22 01:00:29;;;;;;;3.03;2.00;;;;;;;20.48;93.48;101643.22;6277564;28;20425;-73
2023/06/22 01:03:32;;;;;;;3.65;1.77;;;;;;;20.47;93.26;101636.16;6274633;28;20037;-73
2023/06/22 01:06:39;;;;;;;2.13;1.63;;;;;;;20.41;93.94;101631.31;6265257;28;20112;-73
2023/06/22 01:09:51;;;;;;;3.95;2.40;;;;;;;20.36;92.03;101626.34;6271253;28;20052;-73
2023/06/22 01:12:56;;;;;;;2.15;1.60;;;;;;;20.32;91.69;101630.22;6277034;28;20045;-72
2023/06/22 01:16:03;;;;;;;4.43;2.30;;;;;;;20.28;90.72;101624.28;6277903;28;20071;-72
2023/06/22 01:19:19;;;;;;;3.42;2.13;;;;;;;20.22;90.94;101622.13;6277536;28;20056;-73
2023/06/22 01:22:21;;;;;;;2.28;1.70;;;;;;;20.14;91.82;101621.88;6246092;28;20045;-73
2023/06/22 01:25:32;;;;;;;4.28;2.05;;;;;;;20.09;95.24;101620.56;6252698;28;20430;-73
2023/06/22 01:28:44;;;;;;;2.42;1.92;;;;;;;20.02;96.74;101605.00;6252986;28;20053;-73
2023/06/22 01:31:46;;;;;;;3.10;2.00;;;;;;;20.07;95.01;101609.97;6251981;28;20434;-72
2023/06/22 01:34:48;;;;;;;3.47;2.33;;;;;;;20.07;93.04;101601.13;6252497;28;20045;-73
2023/06/22 01:37:50;;;;;;;3.90;2.00;;;;;;;20.05;93.61;101611.94;6252369;28;20057;-73
2023/06/22 01:40:52;;;;;;;4.13;2.65;;;;;;;19.97;93.01;101609.88;6251602;28;20052;-73
2023/06/22 01:43:56;;;;;;;4.57;2.63;;;;;;;19.97;92.71;101609.88;6252201;28;20049;-73
2023/06/22 01:46:57;;;;;;;4.78;2.60;;;;;;;19.94;94.37;101609.25;6252463;28;20054;-73
2023/06/22 01:49:59;;;;;;;3.53;2.10;;;;;;;19.95;93.88;101613.63;6275886;28;20053;-73
2023/06/22 01:53:00;;;;;;;3.42;2.20;;;;;;;19.94;94.94;101619.91;6276094;28;20044;-73
2023/06/22 01:56:02;;;;;;;3.38;2.10;;;;;;;19.88;93.20;101615.94;6276742;28;20053;-73
2023/06/22 01:59:12;;;;;;;4.22;2.28;;;;;;;19.81;92.94;101614.72;6276884;28;20048;-73
2023/06/22 02:02:17;;;;;;;4.63;2.08;;;;;;;19.79;93.33;101610.47;6266855;28;20072;-73
2023/06/22 02:05:20;;;;;;;3.40;1.83;;;;;;;19.78;93.08;101617.63;6251681;28;20045;-73
2023/06/22 02:08:25;;;;;;;3.83;2.40;;;;;;;19.73;93.01;101618.00;6270439;28;20049;-73
2023/06/22 02:11:29;;;;;;;3.42;2.38;;;;;;;19.71;93.56;101611.94;6269897;28;20056;-73
2023/06/22 02:14:32;;;;;;;2.78;2.35;;;;;;;19.69;93.60;101618.34;6276174;28;20045;-73
2023/06/22 02:17:34;;;;;;;3.38;2.40;;;;;;;19.70;93.46;101618.22;6276206;28;20067;-73
2023/06/22 02:20:37;;;;;;;3.53;2.33;;;;;;;19.63;94.87;101614.34;6275618;28;20052;-73
2023/06/22 02:23:39;;;;;;;4.78;3.13;;;;;;;19.60;95.32;101622.56;6276091;28;20049;-73
2023/06/22 02:26:42;;;;;;;4.03;2.47;;;;;;;19.60;96.31;101617.25;6276056;28;20049;-73
2023/06/22 02:29:44;;;;;;;3.33;2.42;;;;;;;19.62;96.19;101623.31;6265739;28;20052;-73
2023/06/22 02:32:46;;;;;;;4.15;2.28;;;;;;;19.62;95.50;101618.00;6247451;28;20053;-73
2023/06/22 02:35:48;;;;;;;4.60;2.60;;;;;;;19.51;96.54;101615.25;6254198;28;20457;-73
2023/06/22 02:38:50;;;;;;;3.05;2.15;;;;;;;19.44;95.68;101611.34;6261677;28;20456;-73
2023/06/22 02:41:52;;;;;;;4.55;2.63;;;;;;;19.37;98.85;101626.13;6250148;28;20057;-73
2023/06/22 02:44:55;;;;;;;2.83;2.13;;;;;;;19.42;98.57;101618.63;6250861;28;20045;-73
2023/06/22 02:47:57;;;;;;;4.68;2.95;;;;;;;19.38;98.93;101625.16;6240897;28;20061;-73
2023/06/22 02:50:58;;;;;;;5.05;2.67;;;;;;;19.34;100.00;101635.19;6249130;28;20053;-73
2023/06/22 02:53:59;;;;;;;5.45;3.00;;;;;;;19.32;100.00;101631.81;6250664;28;20045;-73
2023/06/22 02:57:02;;;;;;;5.40;2.95;;;;;;;19.31;100.00;101631.94;6250158;28;20061;-73
2023/06/22 03:00:16;;;;;;;5.85;3.30;;;;;;;19.25;100.00;101639.41;6250544;28;20140;-73
2023/06/22 03:03:17;;;;;;;4.78;2.97;;;;;;;19.21;100.00;101637.09;6243934;28;20472;-73
2023/06/22 03:06:22;;;;;;;9.70;2.65;;;;;;;19.17;100.00;101640.97;6250424;28;20053;-73
2023/06/22 03:09:24;;;;;;;4.05;3.00;;;;;;;19.14;100.00;101644.72;6250104;28;20385;-73
2023/06/22 03:12:25;;;;;;;4.05;2.60;;;;;;;19.12;100.00;101643.13;6253951;28;20056;-73
2023/06/22 03:15:29;;;;;;;6.03;2.75;;;;;;;19.13;100.00;101644.84;6249622;28;20365;-73
2023/06/22 03:18:30;;;;;;;2.90;2.05;;;;;;;19.15;100.00;101640.22;6250037;28;20060;-73
2023/06/22 03:21:31;;;;;;;4.80;2.53;;;;;;;19.13;100.00;101642.16;6249658;28;20361;-73
2023/06/22 03:24:34;;;;;;;4.28;2.72;;;;;;;19.04;100.00;101641.03;6261894;28;20124;-73
2023/06/22 03:27:35;;;;;;;5.45;2.50;;;;;;;18.96;99.98;101644.28;6274525;28;20164;-73
2023/06/22 03:30:38;;;;;;;5.05;2.67;;;;;;;18.93;100.00;101647.16;6273910;28;20327;-73
2023/06/22 03:33:39;;;;;;;4.45;3.00;;;;;;;18.92;100.00;101641.94;6274267;28;20075;-73
2023/06/22 03:36:41;;;;;;;4.70;2.78;;;;;;;18.89;100.00;101635.03;6258167;28;20041;-73
2023/06/22 03:39:42;;;;;;;5.15;3.10;;;;;;;18.95;100.00;101641.72;6271812;28;20045;-73
2023/06/22 03:42:43;;;;;;;4.45;3.13;;;;;;;18.85;100.00;101646.00;6273505;28;20048;-73
2023/06/22 03:45:46;;;;;;;5.35;3.30;;;;;;;18.82;100.00;101647.13;6274166;28;20049;-73
2023/06/22 03:48:48;;;;;;;6.82;3.45;;;;;;;18.78;100.00;101647.44;6257618;28;20052;-73
2023/06/22 03:51:49;;;;;;;6.07;3.72;;;;;;;18.75;100.00;101646.69;6250542;28;20494;-73
2023/06/22 03:54:50;;;;;;;5.25;3.25;;;;;;;18.60;100.00;101646.94;6265287;28;20052;-73
2023/06/22 03:57:53;;;;;;;6.15;3.05;;;;;;;18.55;100.00;101649.94;6259691;28;20047;-73
2023/06/22 04:00:55;;;;;;;9.48;4.13;;;;;;;18.57;100.00;101652.47;6248549;28;20045;-73
2023/06/22 04:03:57;;;;;;;4.63;3.10;;;;;;;18.62;100.00;101651.22;6250081;28;20048;-73
2023/06/22 04:06:58;;;;;;;4.88;3.25;;;;;;;18.59;100.00;101654.09;6251032;28;20053;-73
2023/06/22 04:09:59;;;;;;;6.65;3.33;;;;;;;18.58;100.00;101654.22;6248692;28;20060;-73
2023/06/22 04:13:01;;;;;;;4.50;3.40;;;;;;;18.56;100.00;101648.97;6254359;28;20057;-73
2023/06/22 04:16:04;;;;;;;5.75;3.65;;;;;;;18.54;100.00;101658.91;6260468;28;20049;-73
2023/06/22 04:19:05;;;;;;;3.88;3.13;;;;;;;18.56;100.00;101661.44;6262473;28;20049;-73
2023/06/22 04:22:07;;;;;;;6.22;3.22;;;;;;;18.57;100.00;101656.00;6257357;28;20078;-73
2023/06/22 04:25:08;;;;;;;3.65;2.75;;;;;;;18.60;100.00;101663.78;6259801;28;20132;-73
2023/06/22 04:28:12;;;;;;;7.20;3.50;;;;;;;18.58;100.00;101665.72;6258150;28;20421;-72
2023/06/22 04:31:15;;;;;;;4.72;3.10;;;;;;;18.60;100.00;101654.94;6232532;28;20046;-73
2023/06/22 04:34:16;;;;;;;4.50;3.05;;;;;;;18.63;100.00;101652.91;6250850;28;20048;-73
2023/06/22 04:37:17;;;;;;;8.23;3.22;;;;;;;18.66;100.00;101652.66;6252981;28;20049;-73
2023/06/22 04:40:19;;;;;;;6.10;3.85;;;;;;;18.69;100.00;101649.81;6242710;28;20049;-72
2023/06/22 04:43:21;;;;;;;7.63;3.97;;;;;;;18.73;100.00;101650.44;6239801;28;20053;-72
2023/06/22 04:46:23;;;;;;;6.45;3.80;;;;;;;18.78;100.00;101650.97;6247617;28;20049;-73
2023/06/22 04:49:32;;;;;;;7.10;2.67;;;;;;;18.82;100.00;101657.75;6253818;28;20068;-73
2023/06/22 04:52:33;;;;;;;5.17;3.70;;;;;;;18.82;100.00;101657.75;6256799;28;20136;-73
2023/06/22 04:55:37;;;;;;;3.90;2.25;;;;;;;18.83;100.00;101651.47;6258230;28;20044;-72
2023/06/22 04:58:39;;;;;;;5.28;3.15;;;;;;;18.84;100.00;101639.00;6266298;28;20049;-73
2023/06/22 05:01:41;;;;;;;5.38;3.45;;;;;;;18.81;100.00;101641.91;6278821;28;20045;-72
2023/06/22 05:04:43;;;;;;;7.05;3.60;;;;;;;18.79;100.00;101644.66;6279000;28;20044;-73
2023/06/22 05:07:48;;;;;;;7.38;3.00;;;;;;;18.78;100.00;101645.63;6279180;28;20041;-73
2023/06/22 05:10:49;;;;;;;3.25;2.67;;;;;;;18.80;100.00;101635.69;6272860;28;20045;-73
2023/06/22 05:13:50;;;;;;;13.90;6.93;;;;;;;18.83;100.00;101631.97;6278854;28;20048;-73
2023/06/22 05:16:53;;;;;;;7.72;4.47;;;;;;;18.90;100.00;101630.56;6278869;28;20045;-73
2023/06/22 05:19:54;;;;;;;6.15;3.60;;;;;;;18.88;100.00;101622.69;6278575;28;20357;-73
2023/06/22 05:22:56;;;;;;;4.88;2.70;;;;;;;18.94;100.00;101618.69;6278027;28;20041;-73
2023/06/22 05:25:57;;;;;;;6.45;2.88;;;;;;;19.03;100.00;101623.38;6278514;28;20457;-73
2023/06/22 05:29:00;;;;;;;3.67;2.53;;;;;;;19.07;100.00;101624.81;6278651;28;20049;-73
2023/06/22 05:32:03;;;;;;;4.07;2.30;;;;;;;19.12;100.00;101622.69;6277703;28;20162;-72
2023/06/22 05:35:05;;;;;;;4.20;2.65;;;;;;;19.15;100.00;101625.09;6278417;28;20056;-72
2023/06/22 05:38:07;;;;;;;4.82;2.70;;;;;;;19.18;100.00;101626.69;6278345;28;20048;-73
2023/06/22 05:41:09;;;;;;;3.45;2.35;;;;;;;19.24;100.00;101621.72;6270965;28;20056;-73
2023/06/22 05:44:10;;;;;;;7.93;2.95;;;;;;;19.24;100.00;101627.06;6277914;28;20052;-73
2023/06/22 05:47:13;;;;;;;4.90;2.78;;;;;;;19.31;100.00;101631.94;6277639;28;20048;-72
2023/06/22 05:50:14;;;;;;;3.15;2.30;;;;;;;19.34;100.00;101623.69;6252673;28;20045;-73
2023/06/22 05:53:16;;;;;;;6.47;2.65;;;;;;;19.37;100.00;101632.31;6253138;28;20057;-72
2023/06/22 05:56:17;;;;;;;4.30;2.58;;;;;;;19.38;100.00;101626.00;6253193;28;20049;-72
2023/06/22 05:59:19;;;;;;;5.18;2.95;;;;;;;19.40;100.00;101633.91;6252883;28;20045;-73
2023/06/22 06:02:21;;;;;;;8.15;3.20;;;;;;;19.38;100.00;101635.81;6262263;28;20045;-73
2023/06/22 06:05:23;;;;;;;3.58;2.78;;;;;;;19.42;100.00;101635.47;6277573;28;20045;-73
2023/06/22 06:08:26;;;;;;;4.00;2.83;;;;;;;19.47;100.00;101622.63;6276083;28;20350;-72
2023/06/22 06:11:27;;;;;;;2.42;1.88;;;;;;;19.49;100.00;101631.38;6271311;28;20175;-73
2023/06/22 06:14:29;;;;;;;4.43;2.38;;;;;;;19.55;100.00;101630.06;6271705;28;20056;-73
2023/06/22 06:17:32;;;;;;;3.67;2.42;;;;;;;19.61;100.00;101624.25;6267292;28;20331;-72
2023/06/22 06:20:33;;;;;;;5.05;2.63;;;;;;;19.66;100.00;101613.25;6248635;28;20045;-73
2023/06/22 06:23:34;;;;;;;3.42;2.13;;;;;;;19.76;100.00;101617.75;6264400;28;20037;-73
2023/06/22 06:26:36;;;;;;;3.22;2.35;;;;;;;19.81;100.00;101611.22;6277041;28;20048;-73
2023/06/22 06:29:37;;;;;;;5.18;3.00;;;;;;;19.87;100.00;101618.72;6266163;28;20052;-73
2023/06/22 06:32:40;;;;;;;2.92;2.15;;;;;;;19.89;100.00;101612.28;6269520;28;20052;-73
2023/06/22 06:35:41;;;;;;;2.97;1.80;;;;;;;19.95;100.00;101613.63;6265518;28;20053;-73
2023/06/22 06:38:43;;;;;;;4.00;2.17;;;;;;;20.00;100.00;101609.63;6260102;28;20051;-73
2023/06/22 06:41:44;;;;;;;2.63;1.70;;;;;;;20.10;100.00;101606.22;6273017;28;20049;-73
2023/06/22 06:44:45;;;;;;;3.33;1.80;;;;;;;20.14;100.00;101613.03;6276581;28;20067;-73
2023/06/22 06:47:49;;;;;;;3.63;2.30;;;;;;;20.17;98.88;101608.28;6276830;28;20429;-73
2023/06/22 06:50:50;;;;;;;5.53;2.55;;;;;;;20.26;98.95;101604.03;6274984;28;20049;-73
2023/06/22 06:53:51;;;;;;;2.55;2.10;;;;;;;20.30;98.40;101601.94;6276693;28;20045;-73
2023/06/22 06:56:52;;;;;;;3.78;2.45;;;;;;;20.36;99.02;101596.13;6276420;28;20040;-73
2023/06/22 06:59:54;;;;;;;2.15;1.90;;;;;;;20.42;95.89;101598.28;6276319;28;20045;-73
2023/06/22 07:02:56;;;;;;;3.58;2.00;;;;;;;20.44;96.71;101604.38;6275738;28;20056;-73
2023/06/22 07:05:58;;;;;;;3.28;2.00;;;;;;;20.46;96.96;101607.75;6276493;28;20352;-73
2023/06/22 07:08:59;;;;;;;3.40;1.95;;;;;;;20.52;96.76;101602.78;6263283;28;20072;-73
2023/06/22 07:12:00;;;;;;;3.80;2.20;;;;;;;20.56;99.31;101602.53;6247190;28;20060;-72
2023/06/22 07:15:03;;;;;;;2.75;1.83;;;;;;;20.60;98.19;101598.66;6251628;28;20057;-72
2023/06/22 07:18:06;;;;;;;6.07;2.30;;;;;;;20.67;96.55;101602.53;6275579;28;20461;-72
2023/06/22 07:21:07;;;;;;;3.00;2.05;;;;;;;20.73;95.87;101599.34;6249658;28;20351;-72
2023/06/22 07:24:09;;;;;;;2.60;1.90;;;;;;;20.78;94.93;101591.78;6249319;28;20065;-72
2023/06/22 07:27:12;;;;;;;3.30;2.17;;;;;;;20.84;93.95;101591.25;6255036;28;20046;-72
2023/06/22 07:30:13;;;;;;;2.53;1.90;;;;;;;20.94;93.00;101586.88;6253536;28;20072;-72
2023/06/22 07:33:17;;;;;;;3.05;2.20;;;;;;;21.11;90.94;101584.59;6236497;28;20050;-72
2023/06/22 07:36:18;;;;;;;3.70;1.92;;;;;;;21.15;92.22;101584.19;6251966;28;20459;-72
2023/06/22 07:39:25;;;;;;;3.55;2.13;;;;;;;21.17;92.50;101584.09;6234794;28;20065;-72
2023/06/22 07:42:26;;;;;;;3.03;2.10;;;;;;;21.26;92.86;101585.97;6260873;28;20045;-72
2023/06/22 07:45:28;;;;;;;6.05;2.70;;;;;;;21.39;89.43;101591.13;6275300;28;20057;-72
2023/06/22 07:48:30;;;;;;;3.45;2.40;;;;;;;21.39;91.09;101588.47;6272663;28;20041;-72
2023/06/22 07:51:32;;;;;;;5.22;2.55;;;;;;;21.44;92.11;101578.25;6244448;28;20048;-73
2023/06/22 07:54:33;;;;;;;3.15;2.30;;;;;;;21.47;90.88;101584.16;6258627;28;20385;-72
2023/06/22 07:57:35;;;;;;;6.65;3.88;;;;;;;21.53;92.05;101582.78;6250534;28;20053;-72
2023/06/22 08:00:37;;;;;;;3.45;2.50;;;;;;;21.65;91.04;101575.53;6248154;28;20457;-72
2023/06/22 08:03:40;;;;;;;2.55;2.08;;;;;;;21.66;90.94;101570.03;6250379;28;20052;-72
2023/06/22 08:06:43;;;;;;;4.30;2.40;;;;;;;21.79;90.46;101572.47;6253835;28;20050;-72
2023/06/22 08:09:47;;;;;;;3.88;2.40;;;;;;;21.87;89.10;101574.50;6237668;28;20168;-72
2023/06/22 08:12:49;;;;;;;6.38;2.60;;;;;;;21.87;90.23;101571.81;6237935;28;20381;-72
2023/06/22 08:15:50;;;;;;;4.03;3.00;;;;;;;21.89;87.11;101572.50;6247741;28;20041;-72
2023/06/22 08:18:53;;;;;;;3.67;2.45;;;;;;;21.97;87.43;101562.81;6252413;28;20476;-72
2023/06/22 08:21:54;;;;;;;3.63;2.80;;;;;;;22.04;86.86;101564.00;6248519;28;20045;-72
2023/06/22 08:24:55;;;;;;;4.05;2.95;;;;;;;22.24;84.93;101564.06;6251695;28;20466;-72
2023/06/22 08:27:57;;;;;;;6.07;2.72;;;;;;;22.32;86.21;101561.56;6250304;28;20056;-73
2023/06/22 08:30:58;;;;;;;4.38;2.60;;;;;;;22.39;85.61;101559.16;6238118;28;20438;-71
2023/06/22 08:34:01;;;;;;;3.15;2.38;;;;;;;22.53;84.46;101567.66;6248102;28;20060;-73
2023/06/22 08:37:06;;;;;;;3.58;2.70;;;;;;;22.56;84.82;101566.50;6239939;28;20045;-73
2023/06/22 08:40:10;;;;;;;4.85;2.75;;;;;;;22.61;84.09;101553.53;6253887;28;20045;-74
2023/06/22 08:43:11;;;;;;;5.95;2.78;;;;;;;22.73;83.80;101560.47;6262710;28;20183;-74
2023/06/22 08:46:13;;;;;;;4.35;3.22;;;;;;;22.86;80.63;101556.66;6274572;28;20052;-74
2023/06/22 08:49:15;;;;;;;5.05;3.20;;;;;;;22.84;83.31;101554.09;6267844;28;20045;-74
2023/06/22 08:52:18;;;;;;;3.22;2.60;;;;;;;22.82;84.52;101548.03;6256134;28;20191;-73
2023/06/22 08:55:19;;;;;;;4.63;2.67;;;;;;;22.84;87.12;101554.09;6246157;28;20053;-74
2023/06/22 08:58:21;;;;;;;4.97;2.72;;;;;;;22.92;85.78;101542.72;6235840;28;20050;-74
2023/06/22 09:01:22;;;;;;;4.07;2.47;;;;;;;22.96;84.92;101552.16;6236626;28;20049;-74
2023/06/22 09:04:25;;;;;;;3.42;2.45;;;;;;;23.03;84.16;101540.72;6234515;28;20060;-74
2023/06/22 09:07:26;;;;;;;3.88;2.70;;;;;;;23.06;85.32;101542.25;6235408;28;20449;-73
2023/06/22 09:10:28;;;;;;;4.75;3.30;;;;;;;23.32;83.31;101542.50;6246977;28;20049;-73
2023/06/22 09:13:31;;;;;;;4.53;2.85;;;;;;;23.37;82.13;101534.84;6259489;28;20071;-73
2023/06/22 09:16:32;;;;;;;4.85;3.20;;;;;;;23.37;83.29;101537.53;6278812;28;20433;-74
2023/06/22 09:19:35;;;;;;;6.30;3.80;;;;;;;23.43;84.20;101526.22;6278274;28;20453;-73
2023/06/22 09:22:36;;;;;;;6.03;3.45;;;;;;;23.44;85.64;101522.56;6278265;28;20056;-73
2023/06/22 09:25:38;;;;;;;4.00;3.30;;;;;;;23.50;87.46;101524.66;6278554;28;20044;-73
2023/06/22 09:28:39;;;;;;;5.00;3.63;;;;;;;23.47;87.58;101514.19;6266444;28;20053;-73
2023/06/22 09:31:40;;;;;;;4.22;2.92;;;;;;;23.53;83.69;101505.56;6253178;28;20048;-74
2023/06/22 09:34:43;;;;;;;4.55;3.40;;;;;;;23.66;83.46;101513.28;6253899;28;20049;-73
2023/06/22 09:37:45;;;;;;;5.18;3.53;;;;;;;23.84;79.06;101499.94;6253274;28;20077;-73
2023/06/22 09:40:46;;;;;;;4.82;2.75;;;;;;;23.74;81.02;101493.78;6252972;28;20447;-74
2023/06/22 09:43:47;;;;;;;5.53;3.38;;;;;;;23.72;82.25;101498.47;6253476;28;20057;-73
2023/06/22 09:46:49;;;;;;;4.40;3.33;;;;;;;23.73;84.46;101500.97;6253515;28;20350;-73
2023/06/22 09:49:51;;;;;;;4.97;3.25;;;;;;;23.70;85.11;101492.38;6253554;28;20053;-73
2023/06/22 09:52:54;;;;;;;6.15;3.20;;;;;;;23.76;84.01;101495.31;6252670;28;20480;-74
2023/06/22 09:55:57;;;;;;;5.22;3.45;;;;;;;23.77;82.91;101490.81;6253297;28;20045;-74
2023/06/22 09:58:58;;;;;;;4.25;3.30;;;;;;;23.72;83.79;101488.56;6253181;28;20334;-74
2023/06/22 10:01:59;;;;;;;5.43;3.20;;;;;;;23.71;87.11;101480.66;6252707;28;20049;-73
2023/06/22 10:05:02;;;;;;;5.45;3.63;;;;;;;23.73;86.96;101482.19;6253047;28;20053;-74
2023/06/22 10:08:04;;;;;;;4.38;3.38;;;;;;;23.84;85.89;101472.25;6253028;28;20053;-74
2023/06/22 10:11:05;;;;;;;5.07;3.55;;;;;;;24.17;83.48;101478.81;6276546;28;20056;-73
2023/06/22 10:14:06;;;;;;;5.72;3.72;;;;;;;24.39;80.92;101472.16;6277771;28;20053;-74
2023/06/22 10:17:08;;;;;;;6.32;3.95;;;;;;;24.41;81.59;101464.81;6277442;28;20048;-74
2023/06/22 10:20:12;;;;;;;5.25;3.15;;;;;;;24.39;82.53;101470.34;6244929;28;20056;-73
2023/06/22 10:23:13;;;;;;;6.13;3.78;;;;;;;24.48;82.72;101469.41;6252701;28;20056;-74
2023/06/22 10:26:15;;;;;;;5.97;3.55;;;;;;;24.59;85.33;101465.63;6252432;28;20049;-73
2023/06/22 10:29:16;;;;;;;4.63;3.42;;;;;;;24.71;80.07;101466.25;6252505;28;20357;-73
2023/06/22 10:32:17;;;;;;;5.38;3.58;;;;;;;24.73;79.26;101467.75;6251784;28;20053;-74
2023/06/22 10:35:20;;;;;;;5.80;4.07;;;;;;;24.76;78.87;101459.38;6252405;28;20453;-73
2023/06/22 10:38:21;;;;;;;5.28;3.58;;;;;;;24.73;81.58;101454.31;6252458;28;20056;-74
2023/06/22 10:41:23;;;;;;;4.93;3.67;;;;;;;24.81;80.13;101450.84;6251526;28;20397;-74
2023/06/22 10:44:24;;;;;;;9.73;4.07;;;;;;;24.79;80.92;101456.38;6251974;28;20060;-73
2023/06/22 10:47:25;;;;;;;6.13;3.83;;;;;;;24.85;80.39;101456.75;6252229;28;20469;-73
2023/06/22 10:50:28;;;;;;;6.70;4.00;;;;;;;24.90;79.57;101455.28;6262136;28;20052;-73
2023/06/22 10:53:29;;;;;;;5.93;3.97;;;;;;;24.98;77.44;101455.34;6276585;28;20343;-74
2023/06/22 10:56:33;;;;;;;5.03;3.75;;;;;;;25.04;79.67;101452.00;6276657;28;20045;-73
2023/06/22 10:59:35;;;;;;;5.47;3.78;;;;;;;25.06;80.42;101452.66;6276569;28;20131;-73
2023/06/22 11:02:36;;;;;;;6.25;4.20;;;;;;;25.12;76.86;101451.25;6275932;28;20123;-73
2023/06/22 11:05:39;;;;;;;6.50;3.92;;;;;;;25.14;78.62;101445.69;6276218;28;20346;-73
2023/06/22 11:08:40;;;;;;;5.85;4.13;;;;;;;25.20;78.52;101440.50;6273367;28;20422;-74
2023/06/22 11:11:41;;;;;;;6.55;3.90;;;;;;;25.21;76.58;101452.97;6262889;28;20100;-74
2023/06/22 11:14:43;;;;;;;8.65;4.10;;;;;;;25.23;75.60;101439.34;6251517;28;20049;-73
2023/06/22 11:17:44;;;;;;;6.05;4.28;;;;;;;25.19;77.12;101435.28;6251306;28;20068;-74
2023/06/22 11:20:47;;;;;;;6.88;3.90;;;;;;;25.28;78.35;101431.66;6250611;28;20055;-73
2023/06/22 11:23:50;;;;;;;5.75;3.85;;;;;;;25.38;77.50;101434.19;6273182;28;20052;-73
2023/06/22 11:26:52;;;;;;;6.13;3.97;;;;;;;25.39;79.02;101419.72;6276132;28;20045;-74
2023/06/22 11:29:54;;;;;;;7.80;4.90;;;;;;;25.48;74.27;101424.16;6275961;28;20052;-73
2023/06/22 11:32:55;;;;;;;6.38;4.22;;;;;;;25.49;76.08;101415.94;6275046;28;20350;-74
2023/06/22 11:35:58;;;;;;;7.55;4.65;;;;;;;25.41;76.06;101415.06;6275641;28;20044;-73
2023/06/22 11:38:59;;;;;;;6.55;4.85;;;;;;;25.38;73.54;101412.69;6271322;28;20600;-73
2023/06/22 11:42:00;;;;;;;6.43;4.55;;;;;;;25.38;75.23;101415.38;6274955;28;20372;-73
2023/06/22 11:45:04;;;;;;;6.95;4.63;;;;;;;25.30;77.73;101402.75;6275385;28;20045;-74
2023/06/22 11:48:06;;;;;;;7.97;5.28;;;;;;;25.39;76.06;101404.47;6275418;28;20040;-73
2023/06/22 11:51:09;;;;;;;7.90;5.15;;;;;;;25.41;76.37;101402.44;6274731;28;20186;-73
2023/06/22 11:54:10;;;;;;;7.43;5.18;;;;;;;25.41;76.75;101397.06;6275488;28;20056;-74
2023/06/22 11:57:11;;;;;;;6.53;4.55;;;;;;;25.36;77.64;101393.16;6275082;28;20579;-74
2023/06/22 12:00:15;;;;;;;7.07;4.63;;;;;;;25.45;76.28;101392.19;6275106;28;20056;-73
2023/06/22 12:03:17;;;;;;;6.18;4.43;;;;;;;25.70;75.65;101385.00;6275188;28;20068;-73
2023/06/22 12:06:20;;;;;;;5.63;4.20;;;;;;;25.79;75.80;101379.50;6275046;28;20124;-74
2023/06/22 12:09:21;;;;;;;8.18;4.38;;;;;;;25.94;74.52;101381.56;6270147;28;20095;-73
2023/06/22 12:12:22;;;;;;;7.43;4.18;;;;;;;26.00;73.47;101370.13;6266189;28;20466;-74
2023/06/22 12:15:24;;;;;;;9.05;4.57;;;;;;;26.11;71.95;101374.31;6273269;28;20045;-74
2023/06/22 12:18:26;;;;;;;7.13;4.70;;;;;;;26.17;71.89;101365.59;6274904;28;20044;-74
2023/06/22 12:21:29;;;;;;;7.15;4.72;;;;;;;26.24;71.84;101356.63;6274259;28;20052;-73
2023/06/22 12:24:30;;;;;;;7.65;4.63;;;;;;;26.44;72.44;101359.88;6274860;28;20040;-74
2023/06/22 12:27:31;;;;;;;7.50;4.47;;;;;;;26.52;69.28;101357.13;6274883;28;20353;-73
2023/06/22 12:30:33;;;;;;;7.43;4.70;;;;;;;26.55;68.58;101350.56;6274121;28;20048;-74
2023/06/22 12:33:34;;;;;;;7.70;5.45;;;;;;;26.63;70.24;101350.56;6274675;28;20040;-73
2023/06/22 12:36:37;;;;;;;7.65;4.88;;;;;;;26.67;69.75;101346.50;6273022;28;20037;-74
2023/06/22 12:39:42;;;;;;;7.38;4.47;;;;;;;26.79;69.16;101336.19;6245851;28;20438;-73
2023/06/22 12:42:43;;;;;;;6.13;4.63;;;;;;;26.77;69.47;101336.34;6249365;28;20087;-74
2023/06/22 12:45:44;;;;;;;7.20;4.90;;;;;;;26.83;67.95;101325.88;6249797;28;20045;-73
2023/06/22 12:48:46;;;;;;;7.78;5.60;;;;;;;26.77;70.14;101313.94;6250216;28;20053;-73
2023/06/22 12:51:49;;;;;;;6.65;4.57;;;;;;;26.81;72.45;101315.28;6254056;28;20046;-74
2023/06/22 12:54:50;;;;;;;6.82;5.28;;;;;;;26.80;69.20;101306.34;6263222;28;20132;-73
2023/06/22 12:57:51;;;;;;;8.63;5.70;;;;;;;26.75;70.30;101306.03;6254483;28;20350;-73
2023/06/22 13:00:53;;;;;;;5.80;4.38;;;;;;;26.83;66.41;101296.22;6254140;28;20434;-74
2023/06/22 13:03:54;;;;;;;7.53;4.53;;;;;;;27.13;69.18;101300.84;6254411;28;20052;-73
2023/06/22 13:06:57;;;;;;;5.72;3.60;;;;;;;27.61;63.00;101298.00;6254336;28;20038;-73
2023/06/22 13:09:58;;;;;;;5.97;3.88;;;;;;;27.72;63.35;101300.31;6254392;28;20049;-73
2023/06/22 13:13:00;;;;;;;7.75;3.58;;;;;;;27.61;63.12;101295.28;6253826;28;20378;-73
2023/06/22 13:16:01;;;;;;;7.00;4.47;;;;;;;27.29;64.38;101298.03;6254306;28;20076;-73
2023/06/22 13:19:03;;;;;;;6.90;4.75;;;;;;;27.05;65.71;101303.53;6254087;28;20346;-74
2023/06/22 13:22:07;;;;;;;5.25;4.10;;;;;;;26.88;67.28;101300.06;6253553;28;20049;-73
2023/06/22 13:25:11;;;;;;;6.40;4.22;;;;;;;26.82;67.16;101287.28;6254139;28;20049;-73
2023/06/22 13:28:13;;;;;;;7.75;5.43;;;;;;;26.84;66.13;101297.91;6254200;28;20072;-73
2023/06/22 13:31:14;;;;;;;5.47;4.13;;;;;;;26.87;66.26;101289.47;6253195;28;20361;-73
2023/06/22 13:34:16;;;;;;;6.10;3.85;;;;;;;26.81;69.28;101299.09;6253962;28;20041;-74
2023/06/22 13:37:19;;;;;;;6.80;4.80;;;;;;;26.81;68.45;101297.25;6253415;28;20072;-73
2023/06/22 13:40:20;;;;;;;7.50;4.65;;;;;;;26.92;67.43;101292.47;6271167;28;20049;-73
2023/06/22 13:43:21;;;;;;;6.25;4.40;;;;;;;26.98;66.51;101292.63;6278269;28;20091;-73
2023/06/22 13:46:23;;;;;;;7.35;4.72;;;;;;;26.97;65.99;101293.63;6278547;28;20045;-73
2023/06/22 13:49:24;;;;;;;6.32;4.70;;;;;;;26.85;68.96;101297.75;6278209;28;20369;-73
2023/06/22 13:52:27;;;;;;;8.13;4.47;;;;;;;26.75;68.38;101292.56;6277421;28;20103;-73
2023/06/22 13:55:28;;;;;;;6.18;4.40;;;;;;;26.58;71.01;101296.31;6278211;28;20445;-74
2023/06/22 13:58:29;;;;;;;7.72;5.22;;;;;;;26.51;71.12;101285.38;6277916;28;20053;-73
2023/06/22 14:01:31;;;;;;;7.13;4.60;;;;;;;26.49;71.56;101284.72;6277014;28;20041;-73
2023/06/22 14:04:32;;;;;;;7.32;4.93;;;;;;;26.36;69.26;101273.59;6277738;28;20357;-73